sensor_id;sensor_type;location;lat;lon;timestamp;temperature;humidity
29255;DHT22;16277;48.890;2.306;2023-12-14T00:11:27;11.50;99.90
29255;DHT22;16277;48.890;2.306;2023-12-14T00:26:32;11.50;99.90
29255;DHT22;16277;48.890;2.306;2023-12-14T00:41:37;11.70;99.90
29255;DHT22;16277;48.890;2.306;2023-12-14T00:56:41;11.60;99.90
29255;DHT22;16277;48.890;2.306;2023-12-14T01:11:46;11.30;99.90
29255;DHT22;16277;48.890;2.306;2023-12-14T01:26:50;11.10;99.90
29255;DHT22;16277;48.890;2.306;2023-12-14T01:41:55;11.50;99.90
29255;DHT22;16277;48.890;2.306;2023-12-14T01:56:59;11.10;99.90
29255;DHT22;16277;48.890;2.306;2023-12-14T02:12:05;11.00;99.90
29255;DHT22;16277;48.890;2.306;2023-12-14T02:27:09;11.60;99.90
29255;DHT22;16277;48.890;2.306;2023-12-14T02:42:14;11.50;99.90
29255;DHT22;16277;48.890;2.306;2023-12-14T02:57:18;11.70;99.90
29255;DHT22;16277;48.890;2.306;2023-12-14T03:12:23;11.70;99.90
29255;DHT22;16277;48.890;2.306;2023-12-14T03:27:27;11.80;99.90
29255;DHT22;16277;48.890;2.306;2023-12-14T03:42:31;11.40;99.90
29255;DHT22;16277;48.890;2.306;2023-12-14T03:57:36;11.20;99.90
29255;DHT22;16277;48.890;2.306;2023-12-14T04:12:41;11.70;99.90
29255;DHT22;16277;48.890;2.306;2023-12-14T04:27:45;11.70;99.90
29255;DHT22;16277;48.890;2.306;2023-12-14T04:42:50;11.50;99.90
29255;DHT22;16277;48.890;2.306;2023-12-14T04:57:54;11.10;99.90
29255;DHT22;16277;48.890;2.306;2023-12-14T05:12:59;11.30;99.90
29255;DHT22;16277;48.890;2.306;2023-12-14T05:28:03;11.70;99.90
29255;DHT22;16277;48.890;2.306;2023-12-14T05:43:08;12.00;99.90
29255;DHT22;16277;48.890;2.306;2023-12-14T05:58:12;11.50;99.90
29255;DHT22;16277;48.890;2.306;2023-12-14T06:13:17;11.30;99.90
29255;DHT22;16277;48.890;2.306;2023-12-14T06:28:21;11.60;99.90
29255;DHT22;16277;48.890;2.306;2023-12-14T06:43:26;11.70;99.90
29255;DHT22;16277;48.890;2.306;2023-12-14T06:58:30;11.40;99.90
29255;DHT22;16277;48.890;2.306;2023-12-14T07:13:35;11.10;99.90
29255;DHT22;16277;48.890;2.306;2023-12-14T07:28:40;11.50;99.90
29255;DHT22;16277;48.890;2.306;2023-12-14T07:43:45;11.50;99.90
29255;DHT22;16277;48.890;2.306;2023-12-14T07:58:49;11.90;99.90
29255;DHT22;16277;48.890;2.306;2023-12-14T08:13:54;11.30;99.90
29255;DHT22;16277;48.890;2.306;2023-12-14T08:28:58;11.00;99.90
29255;DHT22;16277;48.890;2.306;2023-12-14T08:44:03;11.60;99.90
29255;DHT22;16277;48.890;2.306;2023-12-14T08:59:08;11.20;99.90
29255;DHT22;16277;48.890;2.306;2023-12-14T09:14:13;11.10;99.90
29255;DHT22;16277;48.890;2.306;2023-12-14T09:29:17;11.10;99.90
29255;DHT22;16277;48.890;2.306;2023-12-14T09:44:22;11.20;99.90
29255;DHT22;16277;48.890;2.306;2023-12-14T09:59:27;11.40;99.90
29255;DHT22;16277;48.890;2.306;2023-12-14T10:14:31;11.40;99.90
29255;DHT22;16277;48.890;2.306;2023-12-14T10:29:36;11.90;99.90
29255;DHT22;16277;48.890;2.306;2023-12-14T10:44:42;11.70;99.90
29255;DHT22;16277;48.890;2.306;2023-12-14T11:00:08;11.20;99.90
29255;DHT22;16277;48.890;2.306;2023-12-14T11:15:13;10.90;99.90
29255;DHT22;16277;48.890;2.306;2023-12-14T11:30:18;11.50;99.90
29255;DHT22;16277;48.890;2.306;2023-12-14T11:45:23;12.50;99.90
29255;DHT22;16277;48.890;2.306;2023-12-14T12:00:29;11.60;99.90
29255;DHT22;16277;48.890;2.306;2023-12-14T12:15:35;11.70;99.90
29255;DHT22;16277;48.890;2.306;2023-12-14T12:30:40;11.50;99.90
29255;DHT22;16277;48.890;2.306;2023-12-14T12:45:45;12.20;99.90
29255;DHT22;16277;48.890;2.306;2023-12-14T13:00:49;11.70;99.90
29255;DHT22;16277;48.890;2.306;2023-12-14T13:15:54;11.30;99.90
29255;DHT22;16277;48.890;2.306;2023-12-14T13:30:58;11.70;99.90
29255;DHT22;16277;48.890;2.306;2023-12-14T13:46:03;12.20;99.90
29255;DHT22;16277;48.890;2.306;2023-12-14T14:01:23;12.80;99.90
29255;DHT22;16277;48.890;2.306;2023-12-14T14:16:28;13.00;99.90
29255;DHT22;16277;48.890;2.306;2023-12-14T14:31:33;12.40;99.90
29255;DHT22;16277;48.890;2.306;2023-12-14T14:46:37;12.80;99.90
29255;DHT22;16277;48.890;2.306;2023-12-14T15:01:42;12.30;99.90
29255;DHT22;16277;48.890;2.306;2023-12-14T15:16:48;11.90;99.90
29255;DHT22;16277;48.890;2.306;2023-12-14T15:31:53;12.60;99.90
29255;DHT22;16277;48.890;2.306;2023-12-14T15:46:57;12.30;99.90
29255;DHT22;16277;48.890;2.306;2023-12-14T16:02:03;12.70;99.90
29255;DHT22;16277;48.890;2.306;2023-12-14T16:17:07;12.20;99.90
29255;DHT22;16277;48.890;2.306;2023-12-14T16:32:12;12.50;99.90
29255;DHT22;16277;48.890;2.306;2023-12-14T16:47:17;12.40;99.90
29255;DHT22;16277;48.890;2.306;2023-12-14T17:02:22;12.60;99.90
29255;DHT22;16277;48.890;2.306;2023-12-14T17:17:27;12.60;99.90
29255;DHT22;16277;48.890;2.306;2023-12-14T17:32:37;12.90;99.90
29255;DHT22;16277;48.890;2.306;2023-12-14T17:47:42;12.60;99.90
29255;DHT22;16277;48.890;2.306;2023-12-14T18:02:46;12.80;99.90
29255;DHT22;16277;48.890;2.306;2023-12-14T18:17:51;12.80;99.90
29255;DHT22;16277;48.890;2.306;2023-12-14T18:32:56;12.90;99.90
29255;DHT22;16277;48.890;2.306;2023-12-14T18:48:00;12.50;99.90
29255;DHT22;16277;48.890;2.306;2023-12-14T19:03:05;12.80;99.90
29255;DHT22;16277;48.890;2.306;2023-12-14T19:18:10;12.60;99.90
29255;DHT22;16277;48.890;2.306;2023-12-14T19:33:14;12.70;99.90
29255;DHT22;16277;48.890;2.306;2023-12-14T19:48:20;12.80;99.90
29255;DHT22;16277;48.890;2.306;2023-12-14T20:03:28;13.00;99.90
29255;DHT22;16277;48.890;2.306;2023-12-14T20:18:32;12.70;99.90
29255;DHT22;16277;48.890;2.306;2023-12-14T20:33:37;12.60;99.90
29255;DHT22;16277;48.890;2.306;2023-12-14T20:48:42;12.70;99.90
29255;DHT22;16277;48.890;2.306;2023-12-14T21:03:47;12.50;99.90
29255;DHT22;16277;48.890;2.306;2023-12-14T21:18:53;12.80;99.90
29255;DHT22;16277;48.890;2.306;2023-12-14T21:33:58;12.70;99.90
29255;DHT22;16277;48.890;2.306;2023-12-14T21:49:03;12.60;99.90
29255;DHT22;16277;48.890;2.306;2023-12-14T22:04:20;12.60;99.90
29255;DHT22;16277;48.890;2.306;2023-12-14T22:19:25;12.70;99.90
29255;DHT22;16277;48.890;2.306;2023-12-14T22:34:30;12.70;99.90
29255;DHT22;16277;48.890;2.306;2023-12-14T22:49:35;12.30;99.90
29255;DHT22;16277;48.890;2.306;2023-12-14T23:04:40;12.50;99.90
29255;DHT22;16277;48.890;2.306;2023-12-14T23:19:44;12.40;99.90
29255;DHT22;16277;48.890;2.306;2023-12-14T23:34:49;12.40;99.90
29255;DHT22;16277;48.890;2.306;2023-12-14T23:49:53;12.30;99.90
